sensor_id;sensor_type;location;lat;lon;timestamp;temperature;humidity
41481;DHT22;27217;51.220;5.308;2023-02-28T00:00:48;1.20;99.90
41481;DHT22;27217;51.220;5.308;2023-02-28T00:03:14;1.10;99.90
41481;DHT22;27217;51.220;5.308;2023-02-28T00:05:40;1.10;99.90
41481;DHT22;27217;51.220;5.308;2023-02-28T00:08:07;1.30;99.90
41481;DHT22;27217;51.220;5.308;2023-02-28T00:10:33;1.20;99.90
41481;DHT22;27217;51.220;5.308;2023-02-28T00:13:04;1.20;99.90
41481;DHT22;27217;51.220;5.308;2023-02-28T00:15:32;1.00;99.90
41481;DHT22;27217;51.220;5.308;2023-02-28T00:17:57;1.10;99.90
41481;DHT22;27217;51.220;5.308;2023-02-28T00:20:24;1.20;99.90
41481;DHT22;27217;51.220;5.308;2023-02-28T00:22:52;1.20;99.90
41481;DHT22;27217;51.220;5.308;2023-02-28T00:25:21;1.30;99.90
41481;DHT22;27217;51.220;5.308;2023-02-28T00:27:48;1.20;99.90
41481;DHT22;27217;51.220;5.308;2023-02-28T00:30:18;1.50;99.90
41481;DHT22;27217;51.220;5.308;2023-02-28T00:32:44;1.40;99.90
41481;DHT22;27217;51.220;5.308;2023-02-28T00:35:11;1.00;99.90
41481;DHT22;27217;51.220;5.308;2023-02-28T00:37:38;1.00;99.90
41481;DHT22;27217;51.220;5.308;2023-02-28T00:40:04;1.00;99.90
41481;DHT22;27217;51.220;5.308;2023-02-28T00:42:32;1.00;99.90
41481;DHT22;27217;51.220;5.308;2023-02-28T00:44:58;1.40;99.90
41481;DHT22;27217;51.220;5.308;2023-02-28T00:47:23;1.20;99.90
41481;DHT22;27217;51.220;5.308;2023-02-28T00:49:49;0.80;99.90
41481;DHT22;27217;51.220;5.308;2023-02-28T00:52:15;1.00;99.90
41481;DHT22;27217;51.220;5.308;2023-02-28T00:54:41;0.70;99.90
41481;DHT22;27217;51.220;5.308;2023-02-28T00:57:06;0.90;99.90
41481;DHT22;27217;51.220;5.308;2023-02-28T00:59:32;1.00;99.90
41481;DHT22;27217;51.220;5.308;2023-02-28T01:01:59;0.90;99.90
41481;DHT22;27217;51.220;5.308;2023-02-28T01:04:24;1.20;99.90
41481;DHT22;27217;51.220;5.308;2023-02-28T01:06:51;1.00;99.90
41481;DHT22;27217;51.220;5.308;2023-02-28T01:09:16;1.10;99.90
41481;DHT22;27217;51.220;5.308;2023-02-28T01:11:42;1.30;99.90
41481;DHT22;27217;51.220;5.308;2023-02-28T01:14:12;0.70;99.90
41481;DHT22;27217;51.220;5.308;2023-02-28T01:16:39;0.80;99.90
41481;DHT22;27217;51.220;5.308;2023-02-28T01:19:05;0.90;99.90
41481;DHT22;27217;51.220;5.308;2023-02-28T01:21:31;1.00;99.90
41481;DHT22;27217;51.220;5.308;2023-02-28T01:23:58;0.80;99.90
41481;DHT22;27217;51.220;5.308;2023-02-28T01:26:24;0.80;99.90
41481;DHT22;27217;51.220;5.308;2023-02-28T01:28:52;0.60;99.90
41481;DHT22;27217;51.220;5.308;2023-02-28T01:31:19;0.50;99.90
41481;DHT22;27217;51.220;5.308;2023-02-28T01:33:46;0.60;99.90
41481;DHT22;27217;51.220;5.308;2023-02-28T01:36:16;0.70;99.90
41481;DHT22;27217;51.220;5.308;2023-02-28T01:38:43;0.70;99.90
41481;DHT22;27217;51.220;5.308;2023-02-28T01:46:09;0.30;99.90
41481;DHT22;27217;51.220;5.308;2023-02-28T01:48:42;0.50;99.90
41481;DHT22;27217;51.220;5.308;2023-02-28T01:51:17;0.40;99.90
41481;DHT22;27217;51.220;5.308;2023-02-28T01:53:57;0.50;99.90
41481;DHT22;27217;51.220;5.308;2023-02-28T01:56:27;0.80;99.90
41481;DHT22;27217;51.220;5.308;2023-02-28T01:58:55;0.30;99.90
41481;DHT22;27217;51.220;5.308;2023-02-28T02:01:22;0.40;99.90
41481;DHT22;27217;51.220;5.308;2023-02-28T02:03:55;0.70;99.90
41481;DHT22;27217;51.220;5.308;2023-02-28T02:06:24;0.50;99.90
41481;DHT22;27217;51.220;5.308;2023-02-28T02:08:51;0.20;99.90
41481;DHT22;27217;51.220;5.308;2023-02-28T02:11:20;0.40;99.90
41481;DHT22;27217;51.220;5.308;2023-02-28T02:14:09;0.60;99.90
41481;DHT22;27217;51.220;5.308;2023-02-28T02:17:04;0.30;99.90
41481;DHT22;27217;51.220;5.308;2023-02-28T02:33:10;0.00;99.90
41481;DHT22;27217;51.220;5.308;2023-02-28T02:35:54;0.20;99.90
41481;DHT22;27217;51.220;5.308;2023-02-28T02:38:41;-0.10;99.90
41481;DHT22;27217;51.220;5.308;2023-02-28T02:41:28;-0.20;99.90
41481;DHT22;27217;51.220;5.308;2023-02-28T02:46:37;0.10;99.90
41481;DHT22;27217;51.220;5.308;2023-02-28T02:49:07;0.00;99.90
41481;DHT22;27217;51.220;5.308;2023-02-28T02:51:35;-0.10;99.90
41481;DHT22;27217;51.220;5.308;2023-02-28T02:54:36;0.20;99.90
41481;DHT22;27217;51.220;5.308;2023-02-28T02:57:10;0.00;99.90
41481;DHT22;27217;51.220;5.308;2023-02-28T02:59:39;0.00;99.90
41481;DHT22;27217;51.220;5.308;2023-02-28T03:02:11;0.10;99.90
41481;DHT22;27217;51.220;5.308;2023-02-28T03:04:57;0.00;99.90
41481;DHT22;27217;51.220;5.308;2023-02-28T03:07:28;-0.20;99.90
41481;DHT22;27217;51.220;5.308;2023-02-28T03:09:56;-0.10;99.90
41481;DHT22;27217;51.220;5.308;2023-02-28T03:12:39;-0.10;99.90
41481;DHT22;27217;51.220;5.308;2023-02-28T03:18:09;0.00;99.90
41481;DHT22;27217;51.220;5.308;2023-02-28T03:23:23;-0.10;99.90
41481;DHT22;27217;51.220;5.308;2023-02-28T03:26:11;-0.30;99.90
41481;DHT22;27217;51.220;5.308;2023-02-28T03:31:22;0.20;99.90
41481;DHT22;27217;51.220;5.308;2023-02-28T03:33:58;0.00;99.90
41481;DHT22;27217;51.220;5.308;2023-02-28T03:36:29;0.00;99.90
41481;DHT22;27217;51.220;5.308;2023-02-28T03:39:06;0.50;99.90
41481;DHT22;27217;51.220;5.308;2023-02-28T03:41:41;-0.20;99.90
41481;DHT22;27217;51.220;5.308;2023-02-28T03:44:21;0.40;99.90
41481;DHT22;27217;51.220;5.308;2023-02-28T03:46:54;0.00;99.90
41481;DHT22;27217;51.220;5.308;2023-02-28T03:49:35;-0.10;99.90
41481;DHT22;27217;51.220;5.308;2023-02-28T03:52:06;-0.20;99.90
41481;DHT22;27217;51.220;5.308;2023-02-28T03:54:40;-0.20;99.90
41481;DHT22;27217;51.220;5.308;2023-02-28T03:57:53;-0.20;99.90
41481;DHT22;27217;51.220;5.308;2023-02-28T04:00:12;-0.20;99.90
41481;DHT22;27217;51.220;5.308;2023-02-28T04:02:40;-0.20;99.90
41481;DHT22;27217;51.220;5.308;2023-02-28T04:05:07;0.10;99.90
41481;DHT22;27217;51.220;5.308;2023-02-28T04:07:33;-0.10;99.90
41481;DHT22;27217;51.220;5.308;2023-02-28T04:09:59;0.40;99.90
41481;DHT22;27217;51.220;5.308;2023-02-28T04:12:25;-0.30;99.90
41481;DHT22;27217;51.220;5.308;2023-02-28T04:14:51;0.00;99.90
41481;DHT22;27217;51.220;5.308;2023-02-28T04:17:18;0.10;99.90
41481;DHT22;27217;51.220;5.308;2023-02-28T04:19:44;0.60;99.90
41481;DHT22;27217;51.220;5.308;2023-02-28T04:22:10;0.70;99.90
41481;DHT22;27217;51.220;5.308;2023-02-28T04:24:36;0.50;99.90
41481;DHT22;27217;51.220;5.308;2023-02-28T04:27:02;0.40;99.90
41481;DHT22;27217;51.220;5.308;2023-02-28T04:29:30;0.40;99.90
41481;DHT22;27217;51.220;5.308;2023-02-28T04:31:58;0.40;99.90
41481;DHT22;27217;51.220;5.308;2023-02-28T04:34:26;0.80;99.90
41481;DHT22;27217;51.220;5.308;2023-02-28T04:36:54;0.40;99.90
41481;DHT22;27217;51.220;5.308;2023-02-28T04:39:22;0.30;99.90
41481;DHT22;27217;51.220;5.308;2023-02-28T04:41:48;0.40;99.90
41481;DHT22;27217;51.220;5.308;2023-02-28T04:44:14;0.40;99.90
41481;DHT22;27217;51.220;5.308;2023-02-28T04:46:41;0.30;99.90
41481;DHT22;27217;51.220;5.308;2023-02-28T04:49:11;0.30;99.90
41481;DHT22;27217;51.220;5.308;2023-02-28T04:51:37;0.10;99.90
41481;DHT22;27217;51.220;5.308;2023-02-28T04:54:03;0.20;99.90
41481;DHT22;27217;51.220;5.308;2023-02-28T04:56:28;0.20;99.90
41481;DHT22;27217;51.220;5.308;2023-02-28T04:58:55;0.30;99.90
41481;DHT22;27217;51.220;5.308;2023-02-28T05:03:50;0.50;99.90
41481;DHT22;27217;51.220;5.308;2023-02-28T05:06:17;0.30;99.90
41481;DHT22;27217;51.220;5.308;2023-02-28T05:08:44;0.20;99.90
41481;DHT22;27217;51.220;5.308;2023-02-28T05:11:19;0.60;99.90
41481;DHT22;27217;51.220;5.308;2023-02-28T05:13:46;0.10;99.90
41481;DHT22;27217;51.220;5.308;2023-02-28T05:16:12;0.00;99.90
41481;DHT22;27217;51.220;5.308;2023-02-28T05:18:38;0.30;99.90
41481;DHT22;27217;51.220;5.308;2023-02-28T05:21:04;0.00;99.90
41481;DHT22;27217;51.220;5.308;2023-02-28T05:23:30;0.20;99.90
41481;DHT22;27217;51.220;5.308;2023-02-28T05:25:57;0.60;99.90
41481;DHT22;27217;51.220;5.308;2023-02-28T05:28:22;0.20;99.90
41481;DHT22;27217;51.220;5.308;2023-02-28T05:30:48;0.40;99.90
41481;DHT22;27217;51.220;5.308;2023-02-28T05:33:14;0.50;99.90
41481;DHT22;27217;51.220;5.308;2023-02-28T05:35:41;0.40;99.90
41481;DHT22;27217;51.220;5.308;2023-02-28T05:38:08;0.90;99.90
41481;DHT22;27217;51.220;5.308;2023-02-28T05:40:34;0.70;99.90
41481;DHT22;27217;51.220;5.308;2023-02-28T05:43:00;0.70;99.90
41481;DHT22;27217;51.220;5.308;2023-02-28T05:45:27;0.60;99.90
41481;DHT22;27217;51.220;5.308;2023-02-28T05:47:56;0.80;99.90
41481;DHT22;27217;51.220;5.308;2023-02-28T05:50:22;0.80;99.90
41481;DHT22;27217;51.220;5.308;2023-02-28T05:52:51;0.80;99.90
41481;DHT22;27217;51.220;5.308;2023-02-28T05:55:17;0.70;99.90
41481;DHT22;27217;51.220;5.308;2023-02-28T05:57:43;0.50;99.90
41481;DHT22;27217;51.220;5.308;2023-02-28T06:00:10;0.50;99.90
41481;DHT22;27217;51.220;5.308;2023-02-28T06:02:38;0.30;99.90
41481;DHT22;27217;51.220;5.308;2023-02-28T06:05:08;0.60;99.90
41481;DHT22;27217;51.220;5.308;2023-02-28T06:07:37;0.20;99.90
41481;DHT22;27217;51.220;5.308;2023-02-28T06:10:03;-0.10;99.90
41481;DHT22;27217;51.220;5.308;2023-02-28T06:12:29;-0.10;99.90
41481;DHT22;27217;51.220;5.308;2023-02-28T06:14:55;0.20;99.90
41481;DHT22;27217;51.220;5.308;2023-02-28T06:17:21;0.10;99.90
41481;DHT22;27217;51.220;5.308;2023-02-28T06:19:46;0.10;99.90
41481;DHT22;27217;51.220;5.308;2023-02-28T06:22:13;0.00;99.90
41481;DHT22;27217;51.220;5.308;2023-02-28T06:24:39;-0.10;99.90
41481;DHT22;27217;51.220;5.308;2023-02-28T06:27:05;0.00;99.90
41481;DHT22;27217;51.220;5.308;2023-02-28T06:29:33;-0.10;99.90
41481;DHT22;27217;51.220;5.308;2023-02-28T06:31:59;-0.10;99.90
41481;DHT22;27217;51.220;5.308;2023-02-28T06:34:24;0.00;99.90
41481;DHT22;27217;51.220;5.308;2023-02-28T06:36:51;0.00;99.90
41481;DHT22;27217;51.220;5.308;2023-02-28T06:39:17;0.00;99.90
41481;DHT22;27217;51.220;5.308;2023-02-28T06:41:44;0.10;99.90
41481;DHT22;27217;51.220;5.308;2023-02-28T06:44:20;0.00;99.90
41481;DHT22;27217;51.220;5.308;2023-02-28T06:46:47;-0.10;99.90
41481;DHT22;27217;51.220;5.308;2023-02-28T06:49:12;0.00;99.90
41481;DHT22;27217;51.220;5.308;2023-02-28T06:51:40;0.00;99.90
41481;DHT22;27217;51.220;5.308;2023-02-28T06:54:07;0.00;99.90
41481;DHT22;27217;51.220;5.308;2023-02-28T06:56:34;0.10;99.90
41481;DHT22;27217;51.220;5.308;2023-02-28T06:59:01;0.70;99.90
41481;DHT22;27217;51.220;5.308;2023-02-28T07:01:27;0.70;99.90
41481;DHT22;27217;51.220;5.308;2023-02-28T07:03:56;0.50;99.90
41481;DHT22;27217;51.220;5.308;2023-02-28T07:06:22;0.80;99.90
41481;DHT22;27217;51.220;5.308;2023-02-28T07:08:48;0.70;99.90
41481;DHT22;27217;51.220;5.308;2023-02-28T07:11:15;0.70;99.90
41481;DHT22;27217;51.220;5.308;2023-02-28T07:13:41;0.80;99.90
41481;DHT22;27217;51.220;5.308;2023-02-28T07:16:09;1.40;99.90
41481;DHT22;27217;51.220;5.308;2023-02-28T07:18:36;1.00;99.90
41481;DHT22;27217;51.220;5.308;2023-02-28T07:21:03;0.90;99.90
41481;DHT22;27217;51.220;5.308;2023-02-28T07:23:30;0.80;99.90
41481;DHT22;27217;51.220;5.308;2023-02-28T07:25:56;0.90;99.90
41481;DHT22;27217;51.220;5.308;2023-02-28T07:28:22;0.90;99.90
41481;DHT22;27217;51.220;5.308;2023-02-28T07:30:48;0.90;99.90
41481;DHT22;27217;51.220;5.308;2023-02-28T07:33:14;1.00;99.90
41481;DHT22;27217;51.220;5.308;2023-02-28T07:35:41;1.10;99.90
41481;DHT22;27217;51.220;5.308;2023-02-28T07:38:07;1.00;99.90
41481;DHT22;27217;51.220;5.308;2023-02-28T07:40:33;0.90;99.90
41481;DHT22;27217;51.220;5.308;2023-02-28T07:43:00;1.20;99.90
41481;DHT22;27217;51.220;5.308;2023-02-28T07:45:27;1.40;99.90
41481;DHT22;27217;51.220;5.308;2023-02-28T07:47:54;1.10;99.90
41481;DHT22;27217;51.220;5.308;2023-02-28T07:50:20;1.20;99.90
41481;DHT22;27217;51.220;5.308;2023-02-28T07:52:46;1.10;99.90
41481;DHT22;27217;51.220;5.308;2023-02-28T07:55:12;1.50;99.90
41481;DHT22;27217;51.220;5.308;2023-02-28T07:57:39;1.40;99.90
41481;DHT22;27217;51.220;5.308;2023-02-28T08:00:07;1.30;99.90
41481;DHT22;27217;51.220;5.308;2023-02-28T08:02:35;1.10;99.90
41481;DHT22;27217;51.220;5.308;2023-02-28T08:05:01;1.20;99.90
41481;DHT22;27217;51.220;5.308;2023-02-28T08:07:27;1.30;99.90
41481;DHT22;27217;51.220;5.308;2023-02-28T08:09:53;1.70;99.90
41481;DHT22;27217;51.220;5.308;2023-02-28T08:12:19;1.60;99.90
41481;DHT22;27217;51.220;5.308;2023-02-28T08:14:45;1.60;99.90
41481;DHT22;27217;51.220;5.308;2023-02-28T08:17:11;1.90;99.90
41481;DHT22;27217;51.220;5.308;2023-02-28T08:19:37;2.00;99.90
41481;DHT22;27217;51.220;5.308;2023-02-28T08:22:03;2.20;99.90
41481;DHT22;27217;51.220;5.308;2023-02-28T08:24:29;2.10;99.90
41481;DHT22;27217;51.220;5.308;2023-02-28T08:26:55;1.90;99.90
41481;DHT22;27217;51.220;5.308;2023-02-28T08:29:20;2.30;99.90
41481;DHT22;27217;51.220;5.308;2023-02-28T08:31:46;1.90;99.90
41481;DHT22;27217;51.220;5.308;2023-02-28T08:34:15;1.80;99.90
41481;DHT22;27217;51.220;5.308;2023-02-28T08:36:41;1.90;99.90
41481;DHT22;27217;51.220;5.308;2023-02-28T08:39:10;1.90;99.90
41481;DHT22;27217;51.220;5.308;2023-02-28T08:41:36;2.20;99.90
41481;DHT22;27217;51.220;5.308;2023-02-28T08:44:02;2.00;99.90
41481;DHT22;27217;51.220;5.308;2023-02-28T08:46:28;2.00;99.90
41481;DHT22;27217;51.220;5.308;2023-02-28T08:48:55;2.00;99.90
41481;DHT22;27217;51.220;5.308;2023-02-28T08:51:21;2.50;99.90
41481;DHT22;27217;51.220;5.308;2023-02-28T08:53:53;2.50;99.90
41481;DHT22;27217;51.220;5.308;2023-02-28T08:56:19;2.50;99.90
41481;DHT22;27217;51.220;5.308;2023-02-28T08:58:46;2.90;99.90
41481;DHT22;27217;51.220;5.308;2023-02-28T09:01:24;2.50;99.90
41481;DHT22;27217;51.220;5.308;2023-02-28T09:03:50;2.60;99.90
41481;DHT22;27217;51.220;5.308;2023-02-28T09:06:18;2.70;99.90
41481;DHT22;27217;51.220;5.308;2023-02-28T09:08:44;2.90;99.90
41481;DHT22;27217;51.220;5.308;2023-02-28T09:11:10;3.10;99.90
41481;DHT22;27217;51.220;5.308;2023-02-28T09:13:37;3.10;99.90
41481;DHT22;27217;51.220;5.308;2023-02-28T09:16:06;3.10;99.90
41481;DHT22;27217;51.220;5.308;2023-02-28T09:18:35;3.00;99.90
41481;DHT22;27217;51.220;5.308;2023-02-28T09:21:09;3.40;99.90
41481;DHT22;27217;51.220;5.308;2023-02-28T09:23:35;3.20;99.90
41481;DHT22;27217;51.220;5.308;2023-02-28T09:26:04;3.50;99.90
41481;DHT22;27217;51.220;5.308;2023-02-28T09:28:29;3.50;99.00
41481;DHT22;27217;51.220;5.308;2023-02-28T09:30:55;3.30;98.90
41481;DHT22;27217;51.220;5.308;2023-02-28T09:33:23;3.50;97.60
41481;DHT22;27217;51.220;5.308;2023-02-28T09:35:50;3.50;96.90
41481;DHT22;27217;51.220;5.308;2023-02-28T09:38:16;3.40;96.50
41481;DHT22;27217;51.220;5.308;2023-02-28T09:40:58;3.90;95.80
41481;DHT22;27217;51.220;5.308;2023-02-28T09:43:27;3.50;94.60
41481;DHT22;27217;51.220;5.308;2023-02-28T09:48:45;3.60;94.00
41481;DHT22;27217;51.220;5.308;2023-02-28T09:54:14;3.60;93.60
41481;DHT22;27217;51.220;5.308;2023-02-28T09:56:53;3.70;93.20
41481;DHT22;27217;51.220;5.308;2023-02-28T09:59:39;3.90;93.30
41481;DHT22;27217;51.220;5.308;2023-02-28T10:04:59;4.10;92.40
41481;DHT22;27217;51.220;5.308;2023-02-28T10:11:03;4.20;90.90
41481;DHT22;27217;51.220;5.308;2023-02-28T10:13:35;4.20;90.20
41481;DHT22;27217;51.220;5.308;2023-02-28T10:16:10;4.40;85.40
41481;DHT22;27217;51.220;5.308;2023-02-28T10:18:47;4.20;87.00
41481;DHT22;27217;51.220;5.308;2023-02-28T10:21:28;4.10;87.70
41481;DHT22;27217;51.220;5.308;2023-02-28T10:26:45;4.70;88.60
41481;DHT22;27217;51.220;5.308;2023-02-28T10:29:12;4.60;84.00
41481;DHT22;27217;51.220;5.308;2023-02-28T10:31:38;4.50;83.40
41481;DHT22;27217;51.220;5.308;2023-02-28T10:34:04;4.60;82.70
41481;DHT22;27217;51.220;5.308;2023-02-28T10:36:32;4.80;82.80
41481;DHT22;27217;51.220;5.308;2023-02-28T10:38:58;4.90;81.60
41481;DHT22;27217;51.220;5.308;2023-02-28T10:41:31;5.20;80.10
41481;DHT22;27217;51.220;5.308;2023-02-28T10:44:30;5.20;76.90
41481;DHT22;27217;51.220;5.308;2023-02-28T10:46:56;5.20;76.30
41481;DHT22;27217;51.220;5.308;2023-02-28T10:49:27;5.30;74.60
41481;DHT22;27217;51.220;5.308;2023-02-28T10:52:03;5.40;75.30
41481;DHT22;27217;51.220;5.308;2023-02-28T10:54:34;5.40;74.20
41481;DHT22;27217;51.220;5.308;2023-02-28T10:57:21;5.50;72.40
41481;DHT22;27217;51.220;5.308;2023-02-28T11:00:08;5.60;74.40
41481;DHT22;27217;51.220;5.308;2023-02-28T11:02:38;6.30;73.00
41481;DHT22;27217;51.220;5.308;2023-02-28T11:05:34;7.90;66.90
41481;DHT22;27217;51.220;5.308;2023-02-28T11:08:17;7.90;62.30
41481;DHT22;27217;51.220;5.308;2023-02-28T11:10:57;8.30;61.00
41481;DHT22;27217;51.220;5.308;2023-02-28T11:13:35;8.90;58.30
41481;DHT22;27217;51.220;5.308;2023-02-28T11:16:06;8.70;57.40
41481;DHT22;27217;51.220;5.308;2023-02-28T11:18:54;9.50;56.20
41481;DHT22;27217;51.220;5.308;2023-02-28T11:21:29;9.30;55.20
41481;DHT22;27217;51.220;5.308;2023-02-28T11:26:45;9.30;54.00
41481;DHT22;27217;51.220;5.308;2023-02-28T11:29:24;9.60;53.50
41481;DHT22;27217;51.220;5.308;2023-02-28T11:34:31;11.10;51.50
41481;DHT22;27217;51.220;5.308;2023-02-28T11:36:59;11.70;49.20
41481;DHT22;27217;51.220;5.308;2023-02-28T11:39:26;11.00;49.00
41481;DHT22;27217;51.220;5.308;2023-02-28T11:44:37;11.60;49.50
41481;DHT22;27217;51.220;5.308;2023-02-28T11:52:40;13.70;45.90
41481;DHT22;27217;51.220;5.308;2023-02-28T11:55:11;13.70;45.70
41481;DHT22;27217;51.220;5.308;2023-02-28T12:06:23;12.70;47.30
41481;DHT22;27217;51.220;5.308;2023-02-28T12:11:52;12.00;47.40
41481;DHT22;27217;51.220;5.308;2023-02-28T12:26:00;11.80;47.30
41481;DHT22;27217;51.220;5.308;2023-02-28T12:28:35;12.10;48.10
41481;DHT22;27217;51.220;5.308;2023-02-28T12:31:17;12.70;47.20
41481;DHT22;27217;51.220;5.308;2023-02-28T12:33:53;12.40;47.50
41481;DHT22;27217;51.220;5.308;2023-02-28T12:36:21;12.20;47.70
41481;DHT22;27217;51.220;5.308;2023-02-28T12:38:55;11.20;48.50
41481;DHT22;27217;51.220;5.308;2023-02-28T12:44:13;11.80;48.70
41481;DHT22;27217;51.220;5.308;2023-02-28T12:46:47;11.60;49.30
41481;DHT22;27217;51.220;5.308;2023-02-28T12:49:39;12.00;48.20
41481;DHT22;27217;51.220;5.308;2023-02-28T12:52:08;12.40;47.40
41481;DHT22;27217;51.220;5.308;2023-02-28T12:54:50;13.50;47.00
41481;DHT22;27217;51.220;5.308;2023-02-28T12:57:33;14.10;45.90
41481;DHT22;27217;51.220;5.308;2023-02-28T13:00:10;13.90;45.10
41481;DHT22;27217;51.220;5.308;2023-02-28T13:10:47;14.60;45.40
41481;DHT22;27217;51.220;5.308;2023-02-28T13:13:21;14.40;44.80
41481;DHT22;27217;51.220;5.308;2023-02-28T13:16:10;14.40;45.40
41481;DHT22;27217;51.220;5.308;2023-02-28T13:18:44;15.10;44.70
41481;DHT22;27217;51.220;5.308;2023-02-28T13:21:30;15.70;43.60
41481;DHT22;27217;51.220;5.308;2023-02-28T13:23:59;14.80;44.20
41481;DHT22;27217;51.220;5.308;2023-02-28T13:34:20;14.20;44.60
41481;DHT22;27217;51.220;5.308;2023-02-28T13:36:46;13.70;45.40
41481;DHT22;27217;51.220;5.308;2023-02-28T13:45:24;15.50;42.50
41481;DHT22;27217;51.220;5.308;2023-02-28T13:47:55;14.50;43.40
41481;DHT22;27217;51.220;5.308;2023-02-28T13:55:53;14.90;43.30
41481;DHT22;27217;51.220;5.308;2023-02-28T14:04:09;14.70;43.50
41481;DHT22;27217;51.220;5.308;2023-02-28T14:06:33;14.80;43.60
41481;DHT22;27217;51.220;5.308;2023-02-28T14:09:06;14.30;43.90
41481;DHT22;27217;51.220;5.308;2023-02-28T14:11:42;14.30;44.30
41481;DHT22;27217;51.220;5.308;2023-02-28T14:16:58;15.50;42.90
41481;DHT22;27217;51.220;5.308;2023-02-28T14:19:29;14.50;43.30
41481;DHT22;27217;51.220;5.308;2023-02-28T14:27:20;15.90;42.10
41481;DHT22;27217;51.220;5.308;2023-02-28T14:32:59;16.00;42.10
41481;DHT22;27217;51.220;5.308;2023-02-28T14:38:28;16.10;41.60
41481;DHT22;27217;51.220;5.308;2023-02-28T14:40:57;16.30;42.00
41481;DHT22;27217;51.220;5.308;2023-02-28T14:43:28;15.20;42.20
41481;DHT22;27217;51.220;5.308;2023-02-28T14:45:56;14.90;43.00
41481;DHT22;27217;51.220;5.308;2023-02-28T14:48:23;15.50;42.70
41481;DHT22;27217;51.220;5.308;2023-02-28T14:50:53;15.70;42.50
41481;DHT22;27217;51.220;5.308;2023-02-28T14:53:22;15.70;41.90
41481;DHT22;27217;51.220;5.308;2023-02-28T14:55:49;16.30;41.40
41481;DHT22;27217;51.220;5.308;2023-02-28T14:58:30;16.30;41.30
41481;DHT22;27217;51.220;5.308;2023-02-28T15:00:59;15.90;41.80
41481;DHT22;27217;51.220;5.308;2023-02-28T15:03:38;16.50;41.10
41481;DHT22;27217;51.220;5.308;2023-02-28T15:06:13;16.40;41.20
41481;DHT22;27217;51.220;5.308;2023-02-28T15:08:38;16.60;41.50
41481;DHT22;27217;51.220;5.308;2023-02-28T15:11:13;17.10;40.40
41481;DHT22;27217;51.220;5.308;2023-02-28T15:13:52;17.20;40.60
41481;DHT22;27217;51.220;5.308;2023-02-28T15:16:23;17.20;40.70
41481;DHT22;27217;51.220;5.308;2023-02-28T15:18:54;17.30;40.00
41481;DHT22;27217;51.220;5.308;2023-02-28T15:21:21;16.00;41.20
41481;DHT22;27217;51.220;5.308;2023-02-28T15:24:10;15.80;41.70
41481;DHT22;27217;51.220;5.308;2023-02-28T15:26:44;16.30;41.70
41481;DHT22;27217;51.220;5.308;2023-02-28T15:29:29;16.30;41.50
41481;DHT22;27217;51.220;5.308;2023-02-28T15:32:01;16.10;41.10
41481;DHT22;27217;51.220;5.308;2023-02-28T15:34:41;15.30;42.80
41481;DHT22;27217;51.220;5.308;2023-02-28T15:40:10;16.00;41.30
41481;DHT22;27217;51.220;5.308;2023-02-28T15:42:37;16.20;41.20
41481;DHT22;27217;51.220;5.308;2023-02-28T15:45:03;16.50;40.90
41481;DHT22;27217;51.220;5.308;2023-02-28T15:47:30;16.10;41.10
41481;DHT22;27217;51.220;5.308;2023-02-28T15:49:57;16.60;41.30
41481;DHT22;27217;51.220;5.308;2023-02-28T15:52:39;17.40;40.90
41481;DHT22;27217;51.220;5.308;2023-02-28T15:55:10;16.40;41.20
41481;DHT22;27217;51.220;5.308;2023-02-28T15:57:39;15.90;41.60
41481;DHT22;27217;51.220;5.308;2023-02-28T16:00:11;16.40;41.30
41481;DHT22;27217;51.220;5.308;2023-02-28T16:02:38;16.60;41.20
41481;DHT22;27217;51.220;5.308;2023-02-28T16:07:41;14.70;42.60
41481;DHT22;27217;51.220;5.308;2023-02-28T16:10:09;14.10;43.60
41481;DHT22;27217;51.220;5.308;2023-02-28T16:12:37;12.80;45.50
41481;DHT22;27217;51.220;5.308;2023-02-28T16:15:17;13.20;45.50
41481;DHT22;27217;51.220;5.308;2023-02-28T16:17:45;13.70;44.80
41481;DHT22;27217;51.220;5.308;2023-02-28T16:20:24;14.00;44.40
41481;DHT22;27217;51.220;5.308;2023-02-28T16:22:50;13.80;44.70
41481;DHT22;27217;51.220;5.308;2023-02-28T16:25:19;13.40;45.00
41481;DHT22;27217;51.220;5.308;2023-02-28T16:27:48;12.50;46.20
41481;DHT22;27217;51.220;5.308;2023-02-28T16:30:25;12.90;46.00
41481;DHT22;27217;51.220;5.308;2023-02-28T16:32:51;13.10;46.00
41481;DHT22;27217;51.220;5.308;2023-02-28T16:35:18;13.70;45.50
41481;DHT22;27217;51.220;5.308;2023-02-28T16:37:45;13.90;45.00
41481;DHT22;27217;51.220;5.308;2023-02-28T16:40:22;12.60;46.60
41481;DHT22;27217;51.220;5.308;2023-02-28T16:42:51;11.40;48.50
41481;DHT22;27217;51.220;5.308;2023-02-28T16:45:29;10.60;50.30
41481;DHT22;27217;51.220;5.308;2023-02-28T16:47:56;9.90;51.20
41481;DHT22;27217;51.220;5.308;2023-02-28T16:50:24;9.00;52.90
41481;DHT22;27217;51.220;5.308;2023-02-28T16:52:51;8.70;54.10
41481;DHT22;27217;51.220;5.308;2023-02-28T16:55:21;8.60;55.10
41481;DHT22;27217;51.220;5.308;2023-02-28T16:57:57;8.30;55.80
41481;DHT22;27217;51.220;5.308;2023-02-28T17:00:25;8.00;56.60
41481;DHT22;27217;51.220;5.308;2023-02-28T17:02:52;7.90;57.50
41481;DHT22;27217;51.220;5.308;2023-02-28T17:05:18;7.60;58.00
41481;DHT22;27217;51.220;5.308;2023-02-28T17:07:45;7.60;58.60
41481;DHT22;27217;51.220;5.308;2023-02-28T17:10:15;7.60;58.90
41481;DHT22;27217;51.220;5.308;2023-02-28T17:12:42;7.20;60.00
41481;DHT22;27217;51.220;5.308;2023-02-28T17:15:10;7.20;60.60
41481;DHT22;27217;51.220;5.308;2023-02-28T17:17:36;7.10;61.20
41481;DHT22;27217;51.220;5.308;2023-02-28T17:20:03;7.10;62.10
41481;DHT22;27217;51.220;5.308;2023-02-28T17:22:29;6.80;62.30
41481;DHT22;27217;51.220;5.308;2023-02-28T17:24:55;6.90;62.80
41481;DHT22;27217;51.220;5.308;2023-02-28T17:27:21;6.80;62.90
41481;DHT22;27217;51.220;5.308;2023-02-28T17:29:47;6.70;63.70
41481;DHT22;27217;51.220;5.308;2023-02-28T17:32:13;6.50;64.80
41481;DHT22;27217;51.220;5.308;2023-02-28T17:34:39;6.30;65.90
41481;DHT22;27217;51.220;5.308;2023-02-28T17:37:08;6.30;66.90
41481;DHT22;27217;51.220;5.308;2023-02-28T17:39:34;6.10;67.80
41481;DHT22;27217;51.220;5.308;2023-02-28T17:42:00;6.10;69.00
41481;DHT22;27217;51.220;5.308;2023-02-28T17:44:26;6.00;69.40
41481;DHT22;27217;51.220;5.308;2023-02-28T17:46:53;6.20;70.20
41481;DHT22;27217;51.220;5.308;2023-02-28T17:49:20;6.20;70.30
41481;DHT22;27217;51.220;5.308;2023-02-28T17:51:46;6.00;71.10
41481;DHT22;27217;51.220;5.308;2023-02-28T17:54:13;5.90;72.00
41481;DHT22;27217;51.220;5.308;2023-02-28T17:56:40;6.00;72.30
41481;DHT22;27217;51.220;5.308;2023-02-28T17:59:09;5.70;73.40
41481;DHT22;27217;51.220;5.308;2023-02-28T18:01:35;5.90;74.70
41481;DHT22;27217;51.220;5.308;2023-02-28T18:04:01;5.60;75.70
41481;DHT22;27217;51.220;5.308;2023-02-28T18:06:45;5.40;77.60
41481;DHT22;27217;51.220;5.308;2023-02-28T18:09:24;5.40;78.60
41481;DHT22;27217;51.220;5.308;2023-02-28T18:12:09;5.20;80.20
41481;DHT22;27217;51.220;5.308;2023-02-28T18:14:35;5.10;82.10
41481;DHT22;27217;51.220;5.308;2023-02-28T18:17:00;5.00;83.00
41481;DHT22;27217;51.220;5.308;2023-02-28T18:19:26;5.00;84.30